LFRV/VNE METAR and TAF weather

Enter ICAO airport designator
Station Type Date Time Source
LFRV METAR 2020/10/29 17:30 UTC NOAA

LFRV 291730Z AUTO 23009KT 180V260 9999 BKN009 OVC015 14/13 Q1021


Station Type Date Time Source
LFRV Decoded METAR 2020/10/29 17:30 UTC NOAA

Station name not available
Oct 29, 2020 - 01:30 PM EDT / 2020.10.29 1730 UTC
Wind: from the SW (230 degrees) at 10 MPH (9 KT) (direction variable):0
Visibility: greater than 7 mile(s):0
Sky conditions: overcast
Temperature: 57 F (14 C)
Dew Point: 55 F (13 C)
Relative Humidity: 93%
Pressure (altimeter): 30.15 in. Hg (1021 hPa)
ob: LFRV 291730Z AUTO 23009KT 180V260 9999 BKN009 OVC015 14/13 Q1021
cycle: 17

Station Type Date Time Source
LFRV TAF UTC NOAA

Error!

Example: see airport list